Time;durP1;ratioP1;P1;durP2;ratioP2;P2;SDS_P1;SDS_P2;PMS_P1;PMS_P2;Temp;Humidity;BMP_temperature;BMP_pressure;BME280_temperature;BME280_humidity;BME280_pressure;Samples;Min_cycle;Max_cycle;Signal;HPM_P1;HPM_P2
2022/04/21 00:00:15;;;;;;;;;;;11.40;99.90;;;;;;5050312;28;19932;-73
2022/04/21 00:02:42;;;;;;;;;;;11.30;99.90;;;;;;5050561;28;19928;-74
2022/04/21 00:05:09;;;;;;;;;;;11.30;99.90;;;;;;5050612;28;19979;-72
2022/04/21 00:07:36;;;;;;;;;;;11.20;99.90;;;;;;5050712;28;19925;-74
2022/04/21 00:10:03;;;;;;;;;;;11.20;99.90;;;;;;5049848;28;19964;-74
2022/04/21 00:12:33;;;;;;;;;;;11.10;99.90;;;;;;5050587;28;20358;-74
2022/04/21 00:15:00;;;;;;;;;;;11.10;99.90;;;;;;5050304;28;20388;-72
2022/04/21 00:17:27;;;;;;;;;;;11.10;99.90;;;;;;5050315;28;19925;-73
2022/04/21 00:19:54;;;;;;;;;;;11.10;99.90;;;;;;5049926;28;19928;-74
2022/04/21 00:25:05;;;;;;;;;;;11.10;99.90;;;;;;5049991;28;19920;-73
2022/04/21 00:27:39;;;;;;;;;;;11.00;99.90;;;;;;5050141;28;19936;-74
2022/04/21 00:30:07;;;;;;;;;;;11.00;99.90;;;;;;5049976;28;19939;-74
2022/04/21 00:32:34;;;;;;;;;;;11.00;99.90;;;;;;5050051;28;19925;-74
2022/04/21 00:35:00;;;;;;;;;;;11.00;99.90;;;;;;5049965;28;19929;-73
2022/04/21 00:37:27;;;;;;;;;;;10.90;99.90;;;;;;5050104;28;20388;-73
2022/04/21 00:39:54;;;;;;;;;;;10.90;99.90;;;;;;5049839;28;20015;-74
2022/04/21 00:42:21;;;;;;;;;;;10.80;99.90;;;;;;5050323;28;19933;-73
2022/04/21 00:44:50;;;;;;;;;;;10.80;99.90;;;;;;5049322;28;20400;-75
2022/04/21 00:47:17;;;;;;;;;;;10.80;99.90;;;;;;5050076;28;19928;-74
2022/04/21 00:49:44;;;;;;;;;;;10.70;99.90;;;;;;5049578;28;20352;-73
2022/04/21 00:52:11;;;;;;;;;;;10.70;99.90;;;;;;5049681;28;19925;-74
2022/04/21 00:54:38;;;;;;;;;;;10.70;99.90;;;;;;5049309;28;19974;-73
2022/04/21 00:57:05;;;;;;;;;;;10.60;99.90;;;;;;5049731;28;19925;-74
2022/04/21 00:59:33;;;;;;;;;;;10.60;99.90;;;;;;5049485;28;19932;-74
2022/04/21 01:04:47;;;;;;;;;;;10.60;99.90;;;;;;5049282;28;19925;-73
2022/04/21 01:07:13;;;;;;;;;;;10.60;99.90;;;;;;5049722;28;19928;-73
2022/04/21 01:09:40;;;;;;;;;;;10.60;99.90;;;;;;5049525;28;19932;-74
2022/04/21 01:12:09;;;;;;;;;;;10.50;99.90;;;;;;5049912;28;19925;-74
2022/04/21 01:14:37;;;;;;;;;;;10.50;99.90;;;;;;5049439;28;20011;-73
2022/04/21 01:17:05;;;;;;;;;;;10.50;99.90;;;;;;5049398;28;20019;-74
2022/04/21 01:19:33;;;;;;;;;;;10.40;99.90;;;;;;5049171;28;19948;-73
2022/04/21 01:22:01;;;;;;;;;;;10.40;99.90;;;;;;5049720;28;19925;-74
2022/04/21 01:24:28;;;;;;;;;;;10.40;99.90;;;;;;5049543;28;20415;-74
2022/04/21 01:26:55;;;;;;;;;;;10.40;99.90;;;;;;5049601;28;20359;-74
2022/04/21 01:29:22;;;;;;;;;;;10.30;99.90;;;;;;5049106;28;19925;-73
2022/04/21 01:31:49;;;;;;;;;;;10.30;99.90;;;;;;5049389;28;20458;-70
2022/04/21 01:34:16;;;;;;;;;;;10.30;99.90;;;;;;5049020;28;20359;-74
2022/04/21 01:42:13;;;;;;;;;;;10.20;99.90;;;;;;5049270;28;19960;-73
2022/04/21 01:44:40;;;;;;;;;;;10.20;99.90;;;;;;5049345;28;19932;-73
2022/04/21 01:47:06;;;;;;;;;;;10.10;99.90;;;;;;5049424;28;20508;-74
2022/04/21 01:49:33;;;;;;;;;;;10.10;99.90;;;;;;5049211;28;19925;-74
2022/04/21 01:52:00;;;;;;;;;;;10.00;99.90;;;;;;5049127;28;20269;-72
2022/04/21 01:54:28;;;;;;;;;;;10.00;99.90;;;;;;5048932;28;19932;-73
2022/04/21 01:56:55;;;;;;;;;;;9.90;99.90;;;;;;5051516;28;19935;-74
2022/04/21 01:59:22;;;;;;;;;;;9.90;99.90;;;;;;5052821;28;19932;-73
2022/04/21 02:01:49;;;;;;;;;;;9.90;99.90;;;;;;5052884;28;20312;-73
2022/04/21 02:04:15;;;;;;;;;;;9.90;99.90;;;;;;5052787;28;20343;-74
2022/04/21 02:06:42;;;;;;;;;;;9.90;99.90;;;;;;5052814;28;20343;-73
2022/04/21 02:09:09;;;;;;;;;;;9.90;99.90;;;;;;5052938;28;19925;-73
2022/04/21 02:11:37;;;;;;;;;;;9.90;99.90;;;;;;5052966;28;19925;-73
2022/04/21 02:14:04;;;;;;;;;;;9.80;99.90;;;;;;5052690;28;19951;-73
2022/04/21 02:16:31;;;;;;;;;;;9.80;99.90;;;;;;5052744;28;19951;-73
2022/04/21 02:18:57;;;;;;;;;;;9.80;99.90;;;;;;5052326;28;19928;-73
2022/04/21 02:21:24;;;;;;;;;;;9.70;99.90;;;;;;5058831;28;19928;-74
2022/04/21 02:23:51;;;;;;;;;;;9.70;99.90;;;;;;5052951;28;19928;-73
2022/04/21 02:26:18;;;;;;;;;;;9.60;99.90;;;;;;5052740;28;19931;-72
2022/04/21 02:28:46;;;;;;;;;;;9.60;99.90;;;;;;5052548;28;19925;-73
2022/04/21 02:31:13;;;;;;;;;;;9.60;99.90;;;;;;5052004;28;20380;-73
2022/04/21 02:33:40;;;;;;;;;;;9.60;99.90;;;;;;5052351;28;20400;-74
2022/04/21 02:36:06;;;;;;;;;;;9.60;99.90;;;;;;5052513;28;20281;-73
2022/04/21 02:38:33;;;;;;;;;;;9.50;99.90;;;;;;5052393;28;19925;-73
2022/04/21 02:41:01;;;;;;;;;;;;;;;;;;5051940;28;19925;-73
2022/04/21 02:43:28;;;;;;;;;;;9.40;99.90;;;;;;5052139;28;19935;-73
2022/04/21 02:45:56;;;;;;;;;;;9.40;99.90;;;;;;5052115;28;19925;-73
2022/04/21 02:48:23;;;;;;;;;;;9.30;99.90;;;;;;5052222;28;20388;-73
2022/04/21 02:50:50;;;;;;;;;;;9.30;99.90;;;;;;5052033;28;20005;-73
2022/04/21 02:53:18;;;;;;;;;;;9.20;99.90;;;;;;5052017;28;20415;-74
2022/04/21 02:58:29;;;;;;;;;;;9.20;99.90;;;;;;5052040;28;19967;-73
2022/04/21 03:00:57;;;;;;;;;;;9.20;99.90;;;;;;5051408;28;19939;-73
2022/04/21 03:03:24;;;;;;;;;;;9.20;99.90;;;;;;5051790;28;20019;-73
2022/04/21 03:05:51;;;;;;;;;;;9.10;99.90;;;;;;5052103;28;19929;-73
2022/04/21 03:08:18;;;;;;;;;;;9.10;99.90;;;;;;5052818;28;19932;-73
2022/04/21 03:10:45;;;;;;;;;;;9.10;99.90;;;;;;5062834;28;19929;-73
2022/04/21 03:13:11;;;;;;;;;;;9.10;99.90;;;;;;5071617;28;19924;-73
2022/04/21 03:15:38;;;;;;;;;;;9.00;99.90;;;;;;5071498;28;19925;-73
2022/04/21 03:18:07;;;;;;;;;;;8.90;99.90;;;;;;5071679;28;19928;-73
2022/04/21 03:26:02;;;;;;;;;;;8.70;99.90;;;;;;5071391;28;19924;-73
2022/04/21 03:28:29;;;;;;;;;;;8.60;99.90;;;;;;5071601;28;19924;-73
2022/04/21 03:30:56;;;;;;;;;;;8.50;99.90;;;;;;5071767;28;19924;-74
2022/04/21 03:33:24;;;;;;;;;;;8.40;99.90;;;;;;5071338;28;19928;-72
2022/04/21 03:35:51;;;;;;;;;;;8.30;99.90;;;;;;5071120;28;19924;-73
2022/04/21 03:38:18;;;;;;;;;;;8.20;99.90;;;;;;5071073;28;19928;-73
2022/04/21 03:40:45;;;;;;;;;;;8.20;99.90;;;;;;5070749;28;19932;-71
2022/04/21 03:43:12;;;;;;;;;;;8.20;99.90;;;;;;5070886;28;19924;-73
2022/04/21 03:45:39;;;;;;;;;;;8.20;99.90;;;;;;5070881;28;19973;-73
2022/04/21 03:48:06;;;;;;;;;;;8.10;99.90;;;;;;5071026;28;19940;-73
2022/04/21 03:50:34;;;;;;;;;;;8.10;99.90;;;;;;5070628;28;20027;-73
2022/04/21 03:53:01;;;;;;;;;;;8.10;99.90;;;;;;5070983;28;19929;-73
2022/04/21 03:55:28;;;;;;;;;;;8.10;99.90;;;;;;5070679;28;20355;-73
2022/04/21 03:57:54;;;;;;;;;;;8.00;99.90;;;;;;5071104;28;20366;-74
2022/04/21 04:00:22;;;;;;;;;;;8.00;99.90;;;;;;5070530;28;19924;-71
2022/04/21 04:02:48;;;;;;;;;;;7.90;99.90;;;;;;5070902;28;20019;-73
2022/04/21 04:05:15;;;;;;;;;;;7.90;99.90;;;;;;5070504;28;19932;-73
2022/04/21 04:13:20;;;;;;;;;;;7.70;99.90;;;;;;5023197;28;19927;-73
2022/04/21 04:15:48;;;;;;;;;;;7.60;99.90;;;;;;5070326;28;19931;-74
2022/04/21 04:18:15;;;;;;;;;;;7.60;99.90;;;;;;5070305;28;20395;-74
2022/04/21 04:20:42;;;;;;;;;;;7.60;99.90;;;;;;5069815;28;19932;-73
2022/04/21 04:23:10;;;;;;;;;;;7.50;99.90;;;;;;5070695;28;19931;-72
2022/04/21 04:25:37;;;;;;;;;;;7.50;99.90;;;;;;5070219;28;19947;-74
2022/04/21 04:28:04;;;;;;;;;;;7.50;99.90;;;;;;5070332;28;19924;-73
2022/04/21 04:30:31;;;;;;;;;;;7.50;99.90;;;;;;5069759;28;19925;-73
2022/04/21 04:32:58;;;;;;;;;;;7.50;99.90;;;;;;5070212;28;19988;-73
2022/04/21 04:35:26;;;;;;;;;;;7.40;99.90;;;;;;5070090;28;19928;-73
2022/04/21 04:37:52;;;;;;;;;;;7.40;99.90;;;;;;5070324;28;20467;-73
2022/04/21 04:40:21;;;;;;;;;;;7.40;99.90;;;;;;5069733;28;19963;-72
2022/04/21 04:42:46;;;;;;;;;;;7.40;99.90;;;;;;5070153;28;19925;-72
2022/04/21 04:47:57;;;;;;;;;;;7.40;99.90;;;;;;5070165;28;19993;-73
2022/04/21 04:50:24;;;;;;;;;;;7.40;99.90;;;;;;5069871;28;19931;-74
2022/04/21 04:52:56;;;;;;;;;;;7.40;99.90;;;;;;5070058;28;19932;-73
2022/04/21 04:55:25;;;;;;;;;;;7.40;99.90;;;;;;5069823;28;19956;-72
2022/04/21 04:57:52;;;;;;;;;;;7.40;99.90;;;;;;5069733;28;19932;-72
2022/04/21 05:00:19;;;;;;;;;;;7.40;99.90;;;;;;5069525;28;19970;-72
2022/04/21 05:02:46;;;;;;;;;;;7.40;99.90;;;;;;5058100;28;20403;-73
2022/04/21 05:05:13;;;;;;;;;;;7.30;99.90;;;;;;5068711;28;20457;-73
2022/04/21 05:07:40;;;;;;;;;;;7.30;99.90;;;;;;5057411;28;19925;-71
2022/04/21 05:10:08;;;;;;;;;;;7.40;99.90;;;;;;5049610;28;19925;-72
2022/04/21 05:12:36;;;;;;;;;;;7.40;99.90;;;;;;5049401;28;19964;-72
2022/04/21 05:15:04;;;;;;;;;;;7.40;99.90;;;;;;5049503;28;19929;-72
2022/04/21 05:17:31;;;;;;;;;;;7.50;99.90;;;;;;5050061;28;19925;-73
2022/04/21 05:19:58;;;;;;;;;;;7.50;99.90;;;;;;5057700;28;19954;-72
2022/04/21 05:22:27;;;;;;;;;;;7.50;99.90;;;;;;5069727;28;19928;-73
2022/04/21 05:24:54;;;;;;;;;;;7.60;99.90;;;;;;5069302;28;20391;-72
2022/04/21 05:27:21;;;;;;;;;;;7.70;99.90;;;;;;5069683;28;20023;-72
2022/04/21 05:32:36;;;;;;;;;;;7.80;99.90;;;;;;5073753;28;20011;-72
2022/04/21 05:35:04;;;;;;;;;;;7.90;99.90;;;;;;5073887;28;20277;-77
2022/04/21 05:37:33;;;;;;;;;;;7.90;99.90;;;;;;5062763;28;20311;-74
2022/04/21 05:40:00;;;;;;;;;;;7.90;99.90;;;;;;5053924;28;19936;-73
2022/04/21 05:42:27;;;;;;;;;;;8.00;99.90;;;;;;5055356;28;19928;-73
2022/04/21 05:44:57;;;;;;;;;;;8.00;99.90;;;;;;5061755;28;20011;-73
2022/04/21 05:47:25;;;;;;;;;;;8.10;99.90;;;;;;5067984;28;20384;-72
2022/04/21 05:49:51;;;;;;;;;;;8.20;99.90;;;;;;5073086;28;19928;-72
2022/04/21 05:52:23;;;;;;;;;;;8.10;99.90;;;;;;5073630;28;19924;-74
2022/04/21 05:54:50;;;;;;;;;;;8.10;99.90;;;;;;5073148;28;19940;-74
2022/04/21 05:57:16;;;;;;;;;;;8.10;99.90;;;;;;5073315;28;19932;-73
2022/04/21 05:59:43;;;;;;;;;;;8.10;99.90;;;;;;5072958;28;20314;-72
2022/04/21 06:02:12;;;;;;;;;;;8.20;99.90;;;;;;5073254;28;19924;-73
2022/04/21 06:04:39;;;;;;;;;;;8.20;99.90;;;;;;5072881;28;19928;-72
2022/04/21 06:07:06;;;;;;;;;;;8.30;99.90;;;;;;5071839;28;19930;-71
2022/04/21 06:09:32;;;;;;;;;;;8.40;99.90;;;;;;5062700;28;19940;-69
2022/04/21 06:11:59;;;;;;;;;;;8.50;99.90;;;;;;5053966;28;19936;-71
2022/04/21 06:14:26;;;;;;;;;;;8.60;99.90;;;;;;5059768;28;19928;-73
2022/04/21 06:16:53;;;;;;;;;;;8.80;99.90;;;;;;5054170;28;19971;-73
2022/04/21 06:19:21;;;;;;;;;;;8.90;99.90;;;;;;5062423;28;19925;-72
2022/04/21 06:21:48;;;;;;;;;;;9.00;99.90;;;;;;5071940;28;19978;-72
2022/04/21 06:24:15;;;;;;;;;;;9.10;99.90;;;;;;5072435;28;19932;-72
2022/04/21 06:26:42;;;;;;;;;;;9.20;99.90;;;;;;5072761;28;20003;-72
2022/04/21 06:29:09;;;;;;;;;;;9.30;99.90;;;;;;5072143;28;20299;-73
2022/04/21 06:31:36;;;;;;;;;;;9.40;99.90;;;;;;5072391;28;19932;-72
2022/04/21 06:34:03;;;;;;;;;;;9.40;99.90;;;;;;5072462;28;19924;-72
2022/04/21 06:36:32;;;;;;;;;;;9.50;99.90;;;;;;5072597;28;19931;-72
2022/04/21 06:38:59;;;;;;;;;;;9.60;99.90;;;;;;5071959;28;20027;-72
2022/04/21 06:41:26;;;;;;;;;;;9.70;99.90;;;;;;5071957;28;19997;-72
2022/04/21 06:49:21;;;;;;;;;;;10.00;99.90;;;;;;5072335;28;19920;-72
2022/04/21 06:51:49;;;;;;;;;;;10.20;99.90;;;;;;5072393;28;19924;-73
2022/04/21 06:54:16;;;;;;;;;;;10.30;99.90;;;;;;5071807;28;19931;-76
2022/04/21 06:56:48;;;;;;;;;;;10.40;99.90;;;;;;5072606;28;19928;-72
2022/04/21 06:59:15;;;;;;;;;;;10.50;99.90;;;;;;5072300;28;19931;-75
2022/04/21 07:01:42;;;;;;;;;;;10.60;99.90;;;;;;5072800;28;19924;-74
2022/04/21 07:04:09;;;;;;;;;;;10.70;99.90;;;;;;5072341;28;20003;-74
2022/04/21 07:06:35;;;;;;;;;;;10.80;99.90;;;;;;5072744;28;20349;-75
2022/04/21 07:09:04;;;;;;;;;;;10.90;99.90;;;;;;5071792;28;19928;-74
2022/04/21 07:11:30;;;;;;;;;;;11.00;99.90;;;;;;5061127;28;19925;-74
2022/04/21 07:13:57;;;;;;;;;;;11.10;99.90;;;;;;5051609;28;19928;-76
2022/04/21 07:16:24;;;;;;;;;;;11.20;99.90;;;;;;5059531;28;19928;-75
2022/04/21 07:18:51;;;;;;;;;;;11.30;99.90;;;;;;5067191;28;19947;-72
2022/04/21 07:21:18;;;;;;;;;;;11.40;99.90;;;;;;5070093;28;19925;-75
2022/04/21 07:23:45;;;;;;;;;;;11.50;99.90;;;;;;5063256;28;19932;-75
2022/04/21 07:26:13;;;;;;;;;;;11.60;99.90;;;;;;5057936;28;19929;-75
2022/04/21 07:28:41;;;;;;;;;;;11.60;99.90;;;;;;5055014;28;19925;-74
2022/04/21 07:31:08;;;;;;;;;;;11.70;99.90;;;;;;5059355;28;19983;-75
2022/04/21 07:33:34;;;;;;;;;;;11.70;99.90;;;;;;5059790;28;19988;-75
2022/04/21 07:36:01;;;;;;;;;;;11.80;99.90;;;;;;5063119;28;19947;-74
2022/04/21 07:38:29;;;;;;;;;;;11.90;99.90;;;;;;5063164;28;19975;-73
2022/04/21 07:40:55;;;;;;;;;;;12.00;99.90;;;;;;5065419;28;19928;-75
2022/04/21 07:43:23;;;;;;;;;;;12.10;99.90;;;;;;5059069;28;19929;-75
2022/04/21 07:45:52;;;;;;;;;;;12.20;99.90;;;;;;5058620;28;19928;-77
2022/04/21 07:48:19;;;;;;;;;;;12.20;99.90;;;;;;5074464;28;20011;-73
2022/04/21 07:50:46;;;;;;;;;;;12.30;99.90;;;;;;5068279;28;19925;-76
2022/04/21 07:53:15;;;;;;;;;;;12.30;99.90;;;;;;5059047;28;19924;-72
2022/04/21 07:55:42;;;;;;;;;;;12.40;99.90;;;;;;5052083;28;19924;-72
2022/04/21 07:58:09;;;;;;;;;;;12.50;99.90;;;;;;5050937;28;19931;-72
2022/04/21 08:00:38;;;;;;;;;;;12.60;99.90;;;;;;5050555;28;20399;-72
2022/04/21 08:03:05;;;;;;;;;;;12.70;99.90;;;;;;5050587;28;19925;-72
2022/04/21 08:05:32;;;;;;;;;;;12.90;99.90;;;;;;5050682;28;19925;-72
2022/04/21 08:07:59;;;;;;;;;;;13.00;99.90;;;;;;5050464;28;19928;-72
2022/04/21 08:10:27;;;;;;;;;;;13.00;99.90;;;;;;5050374;28;19925;-72
2022/04/21 08:12:55;;;;;;;;;;;13.10;99.90;;;;;;5050425;28;19924;-72
2022/04/21 08:15:22;;;;;;;;;;;13.10;99.90;;;;;;5050423;28;19929;-72
2022/04/21 08:17:50;;;;;;;;;;;13.20;99.90;;;;;;5050601;28;19936;-72
2022/04/21 08:20:17;;;;;;;;;;;13.30;99.90;;;;;;5050190;28;19940;-72
2022/04/21 08:22:45;;;;;;;;;;;13.50;99.90;;;;;;5050556;28;19925;-70
2022/04/21 08:33:26;;;;;;;;;;;13.90;99.90;;;;;;5050267;28;20356;-72
2022/04/21 08:35:58;;;;;;;;;;;14.00;99.90;;;;;;5050078;28;19925;-72
2022/04/21 08:38:24;;;;;;;;;;;14.20;99.90;;;;;;5049929;28;19931;-72
2022/04/21 08:40:53;;;;;;;;;;;14.20;99.90;;;;;;5049970;28;19981;-72
2022/04/21 08:43:20;;;;;;;;;;;14.30;99.90;;;;;;5050128;28;19974;-73
2022/04/21 08:45:48;;;;;;;;;;;14.30;99.90;;;;;;5049874;28;19971;-72
2022/04/21 08:48:16;;;;;;;;;;;14.40;99.90;;;;;;5050167;28;19928;-72
2022/04/21 08:50:44;;;;;;;;;;;14.40;99.90;;;;;;5049629;28;19924;-72
2022/04/21 08:53:11;;;;;;;;;;;14.50;99.90;;;;;;5049788;28;19924;-72
2022/04/21 08:55:38;;;;;;;;;;;14.60;99.90;;;;;;5049635;28;19935;-72
2022/04/21 08:58:05;;;;;;;;;;;14.70;99.90;;;;;;5050042;28;19928;-72
2022/04/21 09:00:32;;;;;;;;;;;14.70;99.90;;;;;;5049655;28;19931;-72
2022/04/21 09:02:59;;;;;;;;;;;14.70;99.90;;;;;;5049699;28;20466;-72
2022/04/21 09:05:28;;;;;;;;;;;14.80;99.90;;;;;;5049120;28;19929;-73
2022/04/21 09:07:57;;;;;;;;;;;14.80;99.90;;;;;;5049257;28;19983;-72
2022/04/21 09:10:24;;;;;;;;;;;14.80;99.90;;;;;;5065926;28;19924;-73
2022/04/21 09:12:55;;;;;;;;;;;14.80;99.90;;;;;;5049856;28;19925;-74
2022/04/21 09:15:23;;;;;;;;;;;14.90;99.90;;;;;;5049865;28;19929;-73
2022/04/21 09:17:51;;;;;;;;;;;15.00;99.90;;;;;;5049833;28;20355;-72
2022/04/21 09:20:18;;;;;;;;;;;15.20;99.90;;;;;;5049335;28;19925;-72
2022/04/21 09:22:49;;;;;;;;;;;15.30;99.90;;;;;;5049896;28;19925;-73
2022/04/21 09:25:17;;;;;;;;;;;15.30;99.90;;;;;;5049446;28;20028;-73
2022/04/21 09:27:45;;;;;;;;;;;15.30;99.90;;;;;;5049922;28;19925;-73
2022/04/21 09:30:13;;;;;;;;;;;15.40;99.90;;;;;;5049167;28;19928;-73
2022/04/21 09:32:41;;;;;;;;;;;15.40;99.90;;;;;;5049708;28;20003;-72
2022/04/21 09:35:09;;;;;;;;;;;15.60;99.90;;;;;;5049096;28;19982;-73
2022/04/21 09:37:48;;;;;;;;;;;15.70;99.90;;;;;;5049802;28;20372;-73
2022/04/21 09:40:17;;;;;;;;;;;15.70;99.90;;;;;;5049300;28;19925;-73
2022/04/21 09:42:44;;;;;;;;;;;15.80;99.90;;;;;;5049507;28;19925;-73
2022/04/21 09:47:55;;;;;;;;;;;15.90;99.90;;;;;;5049657;28;19921;-73
2022/04/21 09:50:25;;;;;;;;;;;15.90;99.90;;;;;;5049363;28;20360;-73
2022/04/21 09:52:52;;;;;;;;;;;15.90;99.90;;;;;;5053108;28;19925;-73
2022/04/21 09:55:25;;;;;;;;;;;16.00;99.90;;;;;;5059887;28;19932;-73
2022/04/21 09:57:52;;;;;;;;;;;16.10;99.90;;;;;;5050138;28;19964;-73
2022/04/21 10:00:21;;;;;;;;;;;16.20;99.90;;;;;;5055408;28;20028;-73
2022/04/21 10:02:49;;;;;;;;;;;16.20;99.90;;;;;;5062172;28;20399;-73
2022/04/21 10:05:16;;;;;;;;;;;16.10;99.90;;;;;;5056908;28;19925;-73
2022/04/21 10:07:44;;;;;;;;;;;16.00;99.90;;;;;;5059859;28;19924;-74
2022/04/21 10:10:11;;;;;;;;;;;16.20;99.90;;;;;;5052603;28;19925;-74
2022/04/21 10:12:40;;;;;;;;;;;16.30;99.90;;;;;;5049289;28;19932;-74
2022/04/21 10:15:08;;;;;;;;;;;16.40;99.90;;;;;;5049243;28;19924;-74
2022/04/21 10:17:35;;;;;;;;;;;16.40;99.90;;;;;;5054877;28;19928;-74
2022/04/21 10:20:02;;;;;;;;;;;16.60;99.90;;;;;;5062890;28;20406;-73
2022/04/21 10:22:32;;;;;;;;;;;16.80;99.90;;;;;;5069948;28;19935;-74
2022/04/21 10:24:59;;;;;;;;;;;16.90;99.90;;;;;;5065196;28;19935;-73
2022/04/21 10:27:40;;;;;;;;;;;17.10;99.90;;;;;;5059712;28;20343;-72
2022/04/21 10:30:15;;;;;;;;;;;17.30;99.90;;;;;;5063169;28;19925;-74
2022/04/21 10:32:49;;;;;;;;;;;17.40;99.90;;;;;;5065215;28;19924;-73
2022/04/21 10:35:20;;;;;;;;;;;17.50;99.90;;;;;;5073457;28;19924;-74
2022/04/21 10:37:47;;;;;;;;;;;17.50;99.90;;;;;;5073607;28;20322;-73
2022/04/21 10:40:21;;;;;;;;;;;17.70;99.90;;;;;;5068761;28;20378;-73
2022/04/21 10:43:03;;;;;;;;;;;17.90;99.90;;;;;;5057316;28;19978;-73
2022/04/21 10:45:31;;;;;;;;;;;18.10;99.90;;;;;;5054524;28;19940;-73
2022/04/21 10:48:05;;;;;;;;;;;18.30;99.90;;;;;;5089084;28;19931;-73
2022/04/21 10:50:32;;;;;;;;;;;18.40;99.90;;;;;;5051381;28;20289;-73
2022/04/21 10:58:50;;;;;;;;;;;18.50;99.90;;;;;;5052983;28;19924;-73
2022/04/21 11:01:23;;;;;;;;;;;18.60;99.90;;;;;;5053189;28;19929;-73
2022/04/21 11:04:09;;;;;;;;;;;18.60;99.90;;;;;;5052699;28;20048;-74
2022/04/21 11:06:43;;;;;;;;;;;18.70;99.90;;;;;;5051822;28;19924;-72
2022/04/21 11:09:25;;;;;;;;;;;18.70;99.90;;;;;;5052466;28;19982;-73
2022/04/21 11:11:52;;;;;;;;;;;18.90;99.90;;;;;;5051888;28;20385;-73
2022/04/21 11:14:31;;;;;;;;;;;19.20;99.90;;;;;;5052803;28;19924;-73
2022/04/21 11:17:00;;;;;;;;;;;19.30;99.90;;;;;;5052984;28;19925;-73
2022/04/21 11:19:33;;;;;;;;;;;19.40;99.90;;;;;;5052507;28;19928;-74
2022/04/21 11:22:01;;;;;;;;;;;19.40;99.90;;;;;;5052866;28;19935;-73
2022/04/21 11:24:28;;;;;;;;;;;19.60;99.90;;;;;;5052263;28;19924;-73
2022/04/21 11:26:55;;;;;;;;;;;19.80;99.90;;;;;;5052440;28;19924;-73
2022/04/21 11:29:22;;;;;;;;;;;19.90;99.90;;;;;;5052249;28;20395;-71
2022/04/21 11:31:48;;;;;;;;;;;20.00;99.90;;;;;;5052667;28;19932;-74
2022/04/21 11:34:23;;;;;;;;;;;20.10;99.90;;;;;;5052099;28;19931;-73
2022/04/21 11:36:50;;;;;;;;;;;20.10;99.90;;;;;;5052228;28;19928;-73
2022/04/21 11:39:16;;;;;;;;;;;20.30;99.90;;;;;;5051820;28;19971;-73
2022/04/21 11:41:44;;;;;;;;;;;20.40;99.90;;;;;;5052362;28;19931;-73
2022/04/21 11:44:11;;;;;;;;;;;20.60;99.90;;;;;;5051780;28;19961;-73
2022/04/21 11:46:38;;;;;;;;;;;20.80;99.90;;;;;;5052276;28;19975;-74
2022/04/21 11:49:05;;;;;;;;;;;21.30;99.90;;;;;;5052129;28;20020;-74
2022/04/21 11:51:33;;;;;;;;;;;21.60;99.90;;;;;;5052365;28;19925;-73
2022/04/21 11:54:03;;;;;;;;;;;22.00;99.90;;;;;;5052035;28;19929;-72
2022/04/21 11:56:30;;;;;;;;;;;22.40;99.90;;;;;;5052146;28;19928;-72
2022/04/21 11:58:57;;;;;;;;;;;22.60;99.90;;;;;;5051810;28;19925;-73
2022/04/21 12:06:55;;;;;;;;;;;21.30;99.90;;;;;;5062431;28;19920;-73
2022/04/21 12:09:23;;;;;;;;;;;21.20;99.90;;;;;;5059354;28;19925;-73
2022/04/21 12:11:51;;;;;;;;;;;20.90;99.90;;;;;;5070806;28;20354;-73
2022/04/21 12:14:18;;;;;;;;;;;20.30;99.90;;;;;;5071534;28;19928;-72
2022/04/21 12:16:46;;;;;;;;;;;19.70;99.90;;;;;;5071367;28;19924;-75
2022/04/21 12:19:13;;;;;;;;;;;19.30;99.90;;;;;;5060669;28;20380;-79
2022/04/21 12:21:40;;;;;;;;;;;19.10;99.90;;;;;;5058383;28;20362;-70
2022/04/21 12:24:12;;;;;;;;;;;18.90;99.90;;;;;;5055256;28;19925;-72
2022/04/21 12:26:40;;;;;;;;;;;18.80;99.90;;;;;;5058663;28;19924;-73
2022/04/21 12:29:08;;;;;;;;;;;18.70;99.90;;;;;;5063054;28;19933;-72
2022/04/21 12:31:42;;;;;;;;;;;18.70;99.90;;;;;;5067856;28;20015;-73
2022/04/21 12:34:10;;;;;;;;;;;18.80;99.90;;;;;;5063207;28;19924;-73
2022/04/21 12:36:36;;;;;;;;;;;19.10;99.90;;;;;;5063131;28;19925;-73
2022/04/21 12:39:04;;;;;;;;;;;19.10;99.90;;;;;;5053787;28;19928;-72
2022/04/21 12:41:32;;;;;;;;;;;19.20;99.90;;;;;;5066517;28;20400;-72
2022/04/21 12:43:59;;;;;;;;;;;19.60;99.90;;;;;;5060053;28;19925;-73
2022/04/21 12:46:28;;;;;;;;;;;20.20;99.90;;;;;;5049985;28;19925;-73
2022/04/21 12:48:55;;;;;;;;;;;21.30;99.90;;;;;;5050166;28;20332;-72
2022/04/21 12:51:22;;;;;;;;;;;22.40;99.90;;;;;;5050242;28;20288;-72
2022/04/21 12:53:58;;;;;;;;;;;22.80;99.90;;;;;;5049733;28;19924;-72
2022/04/21 12:56:38;;;;;;;;;;;23.30;99.90;;;;;;5058232;28;19962;-72
2022/04/21 12:59:04;;;;;;;;;;;23.40;99.90;;;;;;5057446;28;19925;-72
2022/04/21 13:01:31;;;;;;;;;;;23.40;99.90;;;;;;5053986;28;19932;-72
2022/04/21 13:03:58;;;;;;;;;;;23.60;99.90;;;;;;5056545;28;19925;-72
2022/04/21 13:06:26;;;;;;;;;;;24.40;99.90;;;;;;5060645;28;20347;-72
2022/04/21 13:08:53;;;;;;;;;;;25.50;99.90;;;;;;5058292;28;20023;-71
2022/04/21 13:11:20;;;;;;;;;;;25.10;99.90;;;;;;5060883;28;19934;-72
2022/04/21 13:13:49;;;;;;;;;;;24.70;99.90;;;;;;5049251;28;19983;-71
2022/04/21 13:16:15;;;;;;;;;;;24.50;99.90;;;;;;5050270;28;19964;-75
2022/04/21 13:18:42;;;;;;;;;;;23.70;99.90;;;;;;5049875;28;19925;-75
2022/04/21 13:23:53;;;;;;;;;;;22.70;99.90;;;;;;5049587;28;19925;-72
2022/04/21 13:26:22;;;;;;;;;;;22.60;99.90;;;;;;5053158;28;19925;-78
2022/04/21 13:28:50;;;;;;;;;;;22.60;99.90;;;;;;5058305;28;19928;-73
2022/04/21 13:34:02;;;;;;;;;;;21.90;99.90;;;;;;5029968;28;20023;-72
2022/04/21 13:36:29;;;;;;;;;;;21.60;99.90;;;;;;5057580;28;19979;-72
2022/04/21 13:38:56;;;;;;;;;;;21.40;99.90;;;;;;5048371;28;19929;-72
2022/04/21 13:41:23;;;;;;;;;;;21.50;99.90;;;;;;5048734;28;19925;-74
2022/04/21 13:43:52;;;;;;;;;;;21.10;99.90;;;;;;5048523;28;20006;-73
2022/04/21 13:46:18;;;;;;;;;;;21.30;99.90;;;;;;5048609;28;19928;-73
2022/04/21 13:48:45;;;;;;;;;;;21.60;99.90;;;;;;5048727;28;20457;-72
2022/04/21 13:51:12;;;;;;;;;;;21.70;99.90;;;;;;5049102;28;19929;-73
2022/04/21 13:53:39;;;;;;;;;;;21.80;99.90;;;;;;5052516;28;19935;-74
2022/04/21 13:56:06;;;;;;;;;;;22.90;99.90;;;;;;5056587;28;19932;-74
2022/04/21 13:58:33;;;;;;;;;;;24.50;99.90;;;;;;5061219;28;20003;-74
2022/04/21 14:01:02;;;;;;;;;;;25.90;99.90;;;;;;5069030;28;19929;-74
2022/04/21 14:03:32;;;;;;;;;;;26.30;99.90;;;;;;5072685;28;19925;-74
2022/04/21 14:05:59;;;;;;;;;;;26.50;99.90;;;;;;5073254;28;19924;-74
2022/04/21 14:08:26;;;;;;;;;;;26.90;99.90;;;;;;5073333;28;20396;-74
2022/04/21 14:10:53;;;;;;;;;;;27.50;99.90;;;;;;5072588;28;19924;-74
2022/04/21 14:13:20;;;;;;;;;;;27.10;99.90;;;;;;5072699;28;19929;-74
2022/04/21 14:15:46;;;;;;;;;;;27.00;99.90;;;;;;5072589;28;19924;-74
2022/04/21 14:18:15;;;;;;;;;;;26.50;99.90;;;;;;5072693;28;19932;-74
2022/04/21 14:20:43;;;;;;;;;;;26.00;99.90;;;;;;5072535;28;19925;-74
2022/04/21 14:23:09;;;;;;;;;;;25.80;99.90;;;;;;5072586;28;19924;-74
2022/04/21 14:25:36;;;;;;;;;;;25.60;99.90;;;;;;5072173;28;19931;-74
2022/04/21 14:28:03;;;;;;;;;;;25.60;99.90;;;;;;5072656;28;19944;-74
2022/04/21 14:30:30;;;;;;;;;;;25.50;99.90;;;;;;5072308;28;19925;-74
2022/04/21 14:32:57;;;;;;;;;;;25.90;99.90;;;;;;5068478;28;19925;-73
2022/04/21 14:35:25;;;;;;;;;;;26.20;99.90;;;;;;5057001;28;20300;-74
2022/04/21 14:46:05;;;;;;;;;;;27.00;99.90;;;;;;5052389;28;19932;-75
2022/04/21 14:48:32;;;;;;;;;;;26.90;99.90;;;;;;5051780;28;20400;-74
2022/04/21 14:51:00;;;;;;;;;;;26.60;99.90;;;;;;5052233;28;19982;-74
2022/04/21 14:53:27;;;;;;;;;;;26.40;99.90;;;;;;5052153;28;19994;-74
2022/04/21 14:55:54;;;;;;;;;;;26.80;99.90;;;;;;5052427;28;19925;-74
2022/04/21 14:58:21;;;;;;;;;;;26.90;99.90;;;;;;5051527;28;19929;-75
2022/04/21 15:00:48;;;;;;;;;;;27.30;99.90;;;;;;5051149;28;19924;-74
2022/04/21 15:03:15;;;;;;;;;;;27.30;99.90;;;;;;5051299;28;19939;-75
2022/04/21 15:05:42;;;;;;;;;;;27.90;99.90;;;;;;5057338;28;20133;-74
2022/04/21 15:08:10;;;;;;;;;;;28.10;99.90;;;;;;5059081;28;19924;-74
2022/04/21 15:10:40;;;;;;;;;;;28.10;99.90;;;;;;5051730;28;19924;-74
2022/04/21 15:13:07;;;;;;;;;;;27.60;99.90;;;;;;5051703;28;19960;-74
2022/04/21 15:15:34;;;;;;;;;;;26.60;99.90;;;;;;5051590;28;19936;-74
2022/04/21 15:18:01;;;;;;;;;;;26.50;99.90;;;;;;5059781;28;19932;-74
2022/04/21 15:20:29;;;;;;;;;;;26.70;99.90;;;;;;5064104;28;19937;-74
2022/04/21 15:22:56;;;;;;;;;;;27.10;99.30;;;;;;5064034;28;19925;-73
2022/04/21 15:25:24;;;;;;;;;;;27.60;98.90;;;;;;5071042;28;20024;-77
2022/04/21 15:27:51;;;;;;;;;;;27.70;99.50;;;;;;5062369;28;19929;-75
2022/04/21 15:30:18;;;;;;;;;;;27.70;99.60;;;;;;5059705;28;20019;-73
2022/04/21 15:32:45;;;;;;;;;;;27.10;98.90;;;;;;5052222;28;19979;-73
2022/04/21 15:35:12;;;;;;;;;;;26.20;99.40;;;;;;5051463;28;19970;-75